Time;durP1;ratioP1;P1;durP2;ratioP2;P2;SDS_P1;SDS_P2;PMS_P1;PMS_P2;Temp;Humidity;BMP_temperature;BMP_pressure;BME280_temperature;BME280_humidity;BME280_pressure;Samples;Min_cycle;Max_cycle;Signal;HPM_P1;HPM_P2
2023/08/12 00:01:30;;;;;;;;;;;;;;;21.90;60.07;101525.19;5002043;28;4134;-65
2023/08/12 00:03:56;;;;;;;;;;;;;;;21.89;60.28;101527.31;4997684;28;4152;-66
2023/08/12 00:06:23;;;;;;;;;;;;;;;21.90;60.29;101536.72;5000377;28;4185;-66
2023/08/12 00:08:49;;;;;;;;;;;;;;;21.89;60.37;101526.56;5001887;28;5484;-66
2023/08/12 00:11:15;;;;;;;;;;;;;;;21.88;59.94;101528.72;5002281;28;4125;-65
2023/08/12 00:13:42;;;;;;;;;;;;;;;21.89;60.20;101523.69;5000303;28;3991;-66
2023/08/12 00:16:08;;;;;;;;;;;;;;;21.90;60.32;101525.19;5005566;28;4129;-66
2023/08/12 00:18:36;;;;;;;;;;;;;;;21.88;60.36;101522.19;5003274;28;3966;-66
2023/08/12 00:21:05;;;;;;;;;;;;;;;21.88;60.39;101520.06;4998387;28;4132;-66
2023/08/12 00:23:31;;;;;;;;;;;;;;;21.87;60.40;101515.66;4999409;28;4067;-66
2023/08/12 00:25:58;;;;;;;;;;;;;;;21.87;60.25;101504.13;4998191;28;4143;-66
2023/08/12 00:28:24;;;;;;;;;;;;;;;21.87;60.18;101521.44;5002454;28;3988;-66
2023/08/12 00:30:50;;;;;;;;;;;;;;;21.87;60.43;101518.56;4999151;28;4254;-66
2023/08/12 00:33:18;;;;;;;;;;;;;;;21.86;60.21;101517.06;4995936;28;4068;-66
2023/08/12 00:35:44;;;;;;;;;;;;;;;21.87;60.47;101518.56;4997044;28;4133;-66
2023/08/12 00:38:11;;;;;;;;;;;;;;;21.87;60.29;101517.81;5000066;28;4179;-66
2023/08/12 00:40:37;;;;;;;;;;;;;;;21.88;60.15;101510.66;5000617;28;4032;-66
2023/08/12 00:43:04;;;;;;;;;;;;;;;21.87;60.30;101503.38;4998776;28;4142;-66
2023/08/12 00:45:30;;;;;;;;;;;;;;;21.84;60.40;101496.78;5016953;28;4224;-66
2023/08/12 00:47:57;;;;;;;;;;;;;;;21.85;60.15;101494.63;4998239;28;4140;-66
2023/08/12 00:50:23;;;;;;;;;;;;;;;21.84;60.33;101491.00;4999380;28;4319;-66
2023/08/12 00:52:49;;;;;;;;;;;;;;;21.85;60.42;101488.88;5016070;28;4154;-66
2023/08/12 00:55:16;;;;;;;;;;;;;;;21.84;60.21;101490.28;4999782;28;4198;-66
2023/08/12 00:57:42;;;;;;;;;;;;;;;21.83;60.20;101486.66;4985802;28;4205;-66
2023/08/12 01:00:09;;;;;;;;;;;;;;;21.84;60.52;101478.75;5007834;28;4336;-66
2023/08/12 01:02:35;;;;;;;;;;;;;;;21.84;60.25;101475.84;5014092;28;4146;-66
2023/08/12 01:05:03;;;;;;;;;;;;;;;21.83;60.36;101471.47;5002065;28;4522;-66
2023/08/12 01:07:30;;;;;;;;;;;;;;;21.83;60.33;101468.59;4997344;28;4235;-66
2023/08/12 01:09:56;;;;;;;;;;;;;;;21.84;60.26;101478.75;4998797;28;4226;-66
2023/08/12 01:12:31;;;;;;;;;;;;;;;21.84;60.10;101470.09;4996409;28;4048;-66
2023/08/12 01:15:16;;;;;;;;;;;;;;;21.83;60.20;101465.69;4997550;28;4306;-66
2023/08/12 01:17:43;;;;;;;;;;;;;;;21.82;60.27;101467.09;5014597;28;4147;-66
2023/08/12 01:20:13;;;;;;;;;;;;;;;21.82;60.52;101467.84;4999437;28;4535;-66
2023/08/12 01:22:40;;;;;;;;;;;;;;;21.83;60.43;101457.81;4997379;28;4168;-65
2023/08/12 01:25:07;;;;;;;;;;;;;;;21.82;60.55;101449.81;5014329;28;4320;-66
2023/08/12 01:27:34;;;;;;;;;;;;;;;21.82;60.50;101458.47;5001378;28;3966;-66
2023/08/12 01:30:00;;;;;;;;;;;;;;;21.82;60.27;101444.03;5000722;28;4182;-66
2023/08/12 01:32:38;;;;;;;;;;;;;;;21.81;60.50;101449.06;4995463;28;4146;-66
2023/08/12 01:35:25;;;;;;;;;;;;;;;21.82;60.28;101449.81;4995574;28;4643;-66
2023/08/12 01:37:51;;;;;;;;;;;;;;;21.82;60.52;101435.41;4996210;28;4141;-66
2023/08/12 01:40:18;;;;;;;;;;;;;;;21.82;60.54;101444.78;4993565;28;4110;-65
2023/08/12 01:42:44;;;;;;;;;;;;;;;21.81;60.60;101443.31;5013211;28;4253;-66
2023/08/12 01:45:13;;;;;;;;;;;;;;;21.81;60.21;101442.56;4998239;28;4140;-66
2023/08/12 01:47:42;;;;;;;;;;;;;;;21.81;60.62;101436.78;5011624;28;4077;-66
2023/08/12 01:50:09;;;;;;;;;;;;;;;21.80;60.55;101430.25;4999031;28;4135;-66
2023/08/12 01:52:36;;;;;;;;;;;;;;;21.80;60.44;101421.63;4995587;28;4174;-66
2023/08/12 01:55:02;;;;;;;;;;;;;;;21.81;60.40;101431.03;4996301;28;4142;-66
2023/08/12 01:57:29;;;;;;;;;;;;;;;21.81;60.52;101425.25;4999655;28;4156;-66
2023/08/12 01:59:55;;;;;;;;;;;;;;;21.80;60.52;101420.88;4994380;28;4235;-66
2023/08/12 02:02:22;;;;;;;;;;;;;;;21.80;60.51;101418.00;4999659;28;4041;-66
2023/08/12 02:04:49;;;;;;;;;;;;;;;21.80;60.52;101424.50;5017798;28;4153;-66
2023/08/12 02:07:15;;;;;;;;;;;;;;;21.79;60.53;101417.25;5004149;28;4089;-66
2023/08/12 02:09:41;;;;;;;;;;;;;;;21.80;60.50;101409.34;5003494;28;4122;-66
2023/08/12 02:12:08;;;;;;;;;;;;;;;21.80;60.32;101412.22;5003413;28;4093;-65
2023/08/12 02:14:36;;;;;;;;;;;;;;;21.80;60.29;101412.97;4999463;28;4047;-66
2023/08/12 02:17:05;;;;;;;;;;;;;;;21.79;60.57;101399.94;5016666;28;4159;-66
2023/08/12 02:19:32;;;;;;;;;;;;;;;21.79;60.51;101402.84;5004466;28;4216;-64
2023/08/12 02:21:59;;;;;;;;;;;;;;;21.79;60.39;101393.44;4996911;28;4105;-69
2023/08/12 02:24:25;;;;;;;;;;;;;;;21.79;60.39;101393.44;4996531;28;4172;-64
2023/08/12 02:26:52;;;;;;;;;;;;;;;21.80;60.19;101394.94;4995215;28;4123;-65
2023/08/12 02:29:18;;;;;;;;;;;;;;;21.79;60.54;101396.34;4999512;28;4132;-65
2023/08/12 02:31:45;;;;;;;;;;;;;;;21.79;60.41;101394.19;4998284;28;4235;-65
2023/08/12 02:34:11;;;;;;;;;;;;;;;21.79;60.27;101393.44;5000909;28;4389;-65
2023/08/12 02:36:37;;;;;;;;;;;;;;;21.78;60.53;101386.19;4999288;28;4374;-65
2023/08/12 02:39:04;;;;;;;;;;;;;;;21.78;60.26;101389.06;4996884;28;4164;-65
2023/08/12 02:41:31;;;;;;;;;;;;;;;21.78;60.53;101380.41;4999921;28;4026;-64
2023/08/12 02:43:57;;;;;;;;;;;;;;;21.78;60.52;101375.38;4997826;28;4066;-65
2023/08/12 02:46:25;;;;;;;;;;;;;;;21.78;60.26;101374.66;5008023;28;4453;-65
2023/08/12 02:48:51;;;;;;;;;;;;;;;21.77;60.53;101373.91;5005948;28;4164;-65
2023/08/12 02:51:18;;;;;;;;;;;;;;;21.77;60.61;101373.16;5015363;28;4080;-64
2023/08/12 02:53:44;;;;;;;;;;;;;;;21.78;60.63;101374.66;5004513;28;4226;-65
2023/08/12 02:56:11;;;;;;;;;;;;;;;21.79;60.37;101376.16;4999586;28;4143;-65
2023/08/12 02:58:37;;;;;;;;;;;;;;;21.78;60.38;101374.66;4998612;28;4150;-65
2023/08/12 03:01:04;;;;;;;;;;;;;;;21.78;60.59;101371.75;5001102;28;4084;-64
2023/08/12 03:03:30;;;;;;;;;;;;;;;21.77;60.27;101362.38;5003499;28;4267;-65
2023/08/12 03:05:57;;;;;;;;;;;;;;;21.78;60.47;101368.88;5016033;28;4107;-65
2023/08/12 03:08:24;;;;;;;;;;;;;;;21.76;60.40;101366.63;4998740;28;4053;-65
2023/08/12 03:10:57;;;;;;;;;;;;;;;21.77;60.57;101365.25;4997211;28;4176;-65
2023/08/12 03:13:23;;;;;;;;;;;;;;;21.77;60.44;101367.41;5000675;28;4162;-65
2023/08/12 03:15:50;;;;;;;;;;;;;;;21.78;60.44;101357.34;5013398;28;4202;-65
2023/08/12 03:18:16;;;;;;;;;;;;;;;21.77;60.51;101347.22;4997169;28;4053;-65
2023/08/12 03:20:44;;;;;;;;;;;;;;;21.76;60.66;101349.34;5009409;28;4263;-65
2023/08/12 03:23:10;;;;;;;;;;;;;;;21.75;60.57;101342.84;5013664;28;4418;-65
2023/08/12 03:25:38;;;;;;;;;;;;;;;21.77;60.57;101344.34;5012709;28;4043;-65
2023/08/12 03:28:04;;;;;;;;;;;;;;;21.77;60.51;101347.22;4999362;28;4062;-65
2023/08/12 03:30:32;;;;;;;;;;;;;;;21.75;60.62;101339.97;4999202;28;4402;-65
2023/08/12 03:32:58;;;;;;;;;;;;;;;21.77;60.57;101344.34;4998041;28;4052;-65
2023/08/12 03:35:28;;;;;;;;;;;;;;;21.75;60.66;101337.06;5015562;28;4310;-65
2023/08/12 03:37:55;;;;;;;;;;;;;;;21.75;60.43;101342.84;5014073;28;4036;-65
2023/08/12 03:40:22;;;;;;;;;;;;;;;21.74;60.36;101338.47;5000710;28;4166;-65
2023/08/12 03:42:48;;;;;;;;;;;;;;;21.74;60.63;101341.34;4997243;28;4299;-65
2023/08/12 03:45:17;;;;;;;;;;;;;;;21.75;60.69;101337.06;5000295;28;4275;-65
2023/08/12 03:47:45;;;;;;;;;;;;;;;21.74;60.42;101329.81;4996545;28;4173;-65
2023/08/12 03:50:12;;;;;;;;;;;;;;;21.74;60.55;101329.09;4996965;28;4323;-65
2023/08/12 03:52:38;;;;;;;;;;;;;;;21.74;60.37;101331.97;4998820;28;4017;-65
2023/08/12 03:55:05;;;;;;;;;;;;;;;21.74;60.63;101326.94;5018056;28;4201;-65
2023/08/12 03:57:32;;;;;;;;;;;;;;;21.74;60.49;101311.78;4996897;28;4037;-64
2023/08/12 03:59:59;;;;;;;;;;;;;;;21.73;60.58;101316.78;4997779;28;4498;-65
2023/08/12 04:02:25;;;;;;;;;;;;;;;21.73;60.66;101319.69;5012068;28;4273;-65
2023/08/12 04:04:52;;;;;;;;;;;;;;;21.73;60.69;101316.78;5013148;28;4165;-65
2023/08/12 04:07:18;;;;;;;;;;;;;;;21.73;60.29;101319.69;4996529;28;4045;-65
2023/08/12 04:09:45;;;;;;;;;;;;;;;21.73;60.58;101319.69;4995717;28;4145;-65
2023/08/12 04:12:11;;;;;;;;;;;;;;;21.72;60.49;101323.22;4997306;28;4108;-65
2023/08/12 04:14:38;;;;;;;;;;;;;;;21.71;60.75;101322.47;5018201;28;4202;-66
2023/08/12 04:17:04;;;;;;;;;;;;;;;21.56;60.77;101317.41;4996516;28;4114;-66
2023/08/12 04:19:30;;;;;;;;;;;;;;;21.42;60.96;101325.38;4996639;28;4263;-66
2023/08/12 04:21:57;;;;;;;;;;;;;;;21.37;61.02;101326.50;5011889;28;4082;-64
2023/08/12 04:24:23;;;;;;;;;;;;;;;21.48;60.77;101331.41;5014276;28;4231;-64
2023/08/12 04:26:50;;;;;;;;;;;;;;;21.52;60.83;101320.09;4999987;28;4192;-64
2023/08/12 04:29:16;;;;;;;;;;;;;;;21.55;60.74;101324.56;5000206;28;4199;-64
2023/08/12 04:31:43;;;;;;;;;;;;;;;21.56;60.76;101320.28;5015429;28;4182;-64
2023/08/12 04:34:10;;;;;;;;;;;;;;;21.56;60.53;101319.56;5016832;28;4268;-64
2023/08/12 04:36:37;;;;;;;;;;;;;;;21.56;60.79;101314.53;4999078;28;4347;-64
2023/08/12 04:39:04;;;;;;;;;;;;;;;21.56;60.79;101308.03;4995951;28;4344;-64
2023/08/12 04:41:31;;;;;;;;;;;;;;;21.55;60.62;101310.16;5005680;28;4202;-64
2023/08/12 04:43:57;;;;;;;;;;;;;;;21.56;60.69;101314.53;4999216;28;4114;-64
2023/08/12 04:46:27;;;;;;;;;;;;;;;21.56;60.32;101314.53;4997397;28;4074;-64
2023/08/12 04:48:54;;;;;;;;;;;;;;;21.54;60.65;101309.41;4995373;28;4055;-64
2023/08/12 04:51:20;;;;;;;;;;;;;;;21.56;60.50;101311.66;5013607;28;4181;-64
2023/08/12 04:53:47;;;;;;;;;;;;;;;21.56;60.61;101311.66;4999146;28;4135;-64
2023/08/12 04:56:13;;;;;;;;;;;;;;;21.56;60.55;101303.00;5005407;28;4060;-64
2023/08/12 04:58:40;;;;;;;;;;;;;;;21.57;60.35;101306.63;4995780;28;4049;-64
2023/08/12 05:01:07;;;;;;;;;;;;;;;21.56;60.61;101297.25;4996817;28;4181;-64
2023/08/12 05:03:35;;;;;;;;;;;;;;;21.56;60.34;101297.25;5013946;28;4123;-64
2023/08/12 05:06:01;;;;;;;;;;;;;;;21.56;60.48;101297.25;4996400;28;4139;-64
2023/08/12 05:08:28;;;;;;;;;;;;;;;21.58;60.47;101299.47;4996281;28;4018;-64
2023/08/12 05:10:55;;;;;;;;;;;;;;;21.57;60.42;101298.72;4995381;28;4137;-64
2023/08/12 05:13:23;;;;;;;;;;;;;;;21.58;60.52;101293.69;4997487;28;4070;-64
2023/08/12 05:15:49;;;;;;;;;;;;;;;21.58;60.51;101288.69;4991622;28;4052;-64
2023/08/12 05:18:17;;;;;;;;;;;;;;;21.59;60.50;101290.19;4997110;28;4219;-64
2023/08/12 05:20:43;;;;;;;;;;;;;;;21.59;60.42;101280.78;5003995;28;4175;-64
2023/08/12 05:23:12;;;;;;;;;;;;;;;21.59;60.39;101278.66;4997961;28;4041;-64
2023/08/12 05:25:39;;;;;;;;;;;;;;;21.61;60.28;101295.31;5017407;28;4013;-64
2023/08/12 05:28:05;;;;;;;;;;;;;;;21.60;60.36;101280.16;4997486;28;4141;-64
2023/08/12 05:30:32;;;;;;;;;;;;;;;21.60;59.98;101283.03;4999882;28;4106;-64
2023/08/12 05:32:58;;;;;;;;;;;;;;;21.60;60.28;101285.91;4997524;28;4030;-64
2023/08/12 05:35:25;;;;;;;;;;;;;;;21.59;60.27;101284.41;4997123;28;4153;-64
2023/08/12 05:37:51;;;;;;;;;;;;;;;21.59;60.22;101275.78;4998993;28;4167;-64
2023/08/12 05:40:18;;;;;;;;;;;;;;;21.60;60.36;101285.91;4995224;28;4180;-64
2023/08/12 05:42:44;;;;;;;;;;;;;;;21.60;60.51;101285.91;4997738;28;4152;-64
2023/08/12 05:45:11;;;;;;;;;;;;;;;21.59;60.20;101278.66;4999577;28;4080;-64
2023/08/12 05:47:37;;;;;;;;;;;;;;;21.60;60.56;101285.91;5001834;28;4110;-64
2023/08/12 05:50:04;;;;;;;;;;;;;;;21.60;60.47;101291.69;4997521;28;4259;-64
2023/08/12 05:52:30;;;;;;;;;;;;;;;21.61;60.25;101289.53;4998091;28;3994;-64
2023/08/12 05:54:57;;;;;;;;;;;;;;;21.61;60.46;101287.41;4997052;28;4050;-64
2023/08/12 05:57:23;;;;;;;;;;;;;;;21.60;60.55;101297.44;4995319;28;4055;-64
2023/08/12 05:59:52;;;;;;;;;;;;;;;21.60;60.15;101291.69;4994117;28;4008;-64
2023/08/12 06:02:19;;;;;;;;;;;;;;;21.61;60.56;101292.41;4984372;28;4040;-63
2023/08/12 06:04:45;;;;;;;;;;;;;;;21.62;60.47;101294.63;4994587;28;4160;-64
2023/08/12 06:07:11;;;;;;;;;;;;;;;21.61;60.60;101293.16;4995463;28;4157;-63
2023/08/12 06:09:38;;;;;;;;;;;;;;;21.62;60.51;101299.66;5007634;28;4509;-64
2023/08/12 06:12:04;;;;;;;;;;;;;;;21.63;60.53;101299.03;5001966;28;4064;-64
2023/08/12 06:14:31;;;;;;;;;;;;;;;21.62;60.30;101306.16;4998677;28;4250;-64
2023/08/12 06:16:57;;;;;;;;;;;;;;;21.64;60.36;101303.38;4997091;28;4042;-64
2023/08/12 06:19:24;;;;;;;;;;;;;;;21.63;60.41;101293.25;4996076;28;4029;-64
2023/08/12 06:21:51;;;;;;;;;;;;;;;21.63;60.41;101301.91;4998016;28;4191;-64
2023/08/12 06:24:17;;;;;;;;;;;;;;;21.64;60.36;101294.75;4998398;28;4100;-63
2023/08/12 06:26:44;;;;;;;;;;;;;;;21.64;60.14;101297.63;4996889;28;4214;-64
2023/08/12 06:29:10;;;;;;;;;;;;;;;21.62;60.43;101288.88;4999333;28;4112;-63
2023/08/12 06:31:36;;;;;;;;;;;;;;;21.63;60.28;101290.38;4999034;28;4557;-64
2023/08/12 06:34:03;;;;;;;;;;;;;;;21.62;60.49;101283.09;4995466;28;4133;-64
2023/08/12 06:36:29;;;;;;;;;;;;;;;21.64;60.48;101291.13;5002261;28;4208;-63
2023/08/12 06:38:56;;;;;;;;;;;;;;;21.64;60.18;101288.25;4991956;28;4141;-64
2023/08/12 06:41:22;;;;;;;;;;;;;;;21.63;60.32;101296.13;5001867;28;4187;-64
2023/08/12 06:43:49;;;;;;;;;;;;;;;21.63;60.10;101290.38;4995425;28;4215;-64
2023/08/12 06:46:15;;;;;;;;;;;;;;;21.63;60.56;101281.00;4997200;28;4173;-64
2023/08/12 06:48:42;;;;;;;;;;;;;;;21.64;60.37;101282.47;5000340;28;3970;-64
2023/08/12 06:51:11;;;;;;;;;;;;;;;21.63;60.57;101266.59;4999976;28;4164;-64
2023/08/12 06:53:38;;;;;;;;;;;;;;;21.63;60.36;101273.09;4999906;28;4065;-64
2023/08/12 06:56:04;;;;;;;;;;;;;;;21.64;60.24;101274.56;4999750;28;4157;-63
2023/08/12 06:58:31;;;;;;;;;;;;;;;21.63;60.42;101257.94;5001536;28;4123;-64
2023/08/12 07:00:58;;;;;;;;;;;;;;;21.64;60.62;101262.28;5002416;28;4158;-64
2023/08/12 07:03:25;;;;;;;;;;;;;;;21.63;60.39;101255.78;4999925;28;4053;-64
2023/08/12 07:05:52;;;;;;;;;;;;;;;21.64;60.28;101263.03;5002938;28;4183;-64
2023/08/12 07:08:19;;;;;;;;;;;;;;;21.64;60.55;101268.81;4999058;28;4073;-64
2023/08/12 07:10:45;;;;;;;;;;;;;;;21.64;60.57;101263.03;5002494;28;4176;-65
2023/08/12 07:13:12;;;;;;;;;;;;;;;21.64;60.54;101265.19;5001311;28;5775;-64
2023/08/12 07:15:38;;;;;;;;;;;;;;;21.65;60.51;101258.03;5003518;28;4268;-65
2023/08/12 07:18:04;;;;;;;;;;;;;;;21.64;60.66;101260.16;4998355;28;4481;-64
2023/08/12 07:20:31;;;;;;;;;;;;;;;21.65;60.74;101261.66;5001991;28;4061;-64
2023/08/12 07:22:57;;;;;;;;;;;;;;;21.65;60.82;101258.03;4998823;28;4050;-66
2023/08/12 07:25:24;;;;;;;;;;;;;;;21.69;60.46;101261.84;4999532;28;4193;-68
2023/08/12 07:27:50;;;;;;;;;;;;;;;21.72;60.52;101263.44;5002466;28;4343;-65
2023/08/12 07:30:17;;;;;;;;;;;;;;;21.74;60.42;101257.03;4999230;28;4033;-66
2023/08/12 07:32:43;;;;;;;;;;;;;;;21.73;60.50;101267.78;4997790;28;4049;-65
2023/08/12 07:35:09;;;;;;;;;;;;;;;21.70;60.63;101257.56;5002001;28;4206;-63
2023/08/12 07:37:36;;;;;;;;;;;;;;;21.74;60.72;101266.41;5003882;28;4161;-63
2023/08/12 07:40:03;;;;;;;;;;;;;;;21.77;60.47;101257.88;5000361;28;4445;-62
2023/08/12 07:42:29;;;;;;;;;;;;;;;21.75;60.77;101259.25;5001592;28;4187;-63
2023/08/12 07:44:56;;;;;;;;;;;;;;;21.75;60.58;101265.00;5000871;28;4186;-62
2023/08/12 07:47:22;;;;;;;;;;;;;;;21.75;60.66;101261.38;5003276;28;4055;-63
2023/08/12 07:49:48;;;;;;;;;;;;;;;21.75;60.60;101267.88;5003429;28;4474;-63
2023/08/12 07:52:15;;;;;;;;;;;;;;;21.75;60.62;101256.34;5000567;28;4412;-63
2023/08/12 07:54:42;;;;;;;;;;;;;;;21.74;60.60;101254.88;5001744;28;4058;-64
2023/08/12 07:57:08;;;;;;;;;;;;;;;21.78;60.67;101256.47;4997515;28;4161;-65
2023/08/12 07:59:35;;;;;;;;;;;;;;;21.79;60.79;101258.69;5003286;28;4255;-65
2023/08/12 08:02:01;;;;;;;;;;;;;;;21.79;60.88;101261.59;5001307;28;4172;-65
2023/08/12 08:04:28;;;;;;;;;;;;;;;21.83;61.14;101261.78;5000209;28;4128;-65
2023/08/12 08:06:54;;;;;;;;;;;;;;;21.82;61.22;101259.53;5002209;28;4164;-65
2023/08/12 08:09:20;;;;;;;;;;;;;;;21.84;61.30;101256.75;5005448;28;4092;-65
2023/08/12 08:11:47;;;;;;;;;;;;;;;21.80;61.55;101257.28;5003109;28;4026;-65
2023/08/12 08:14:13;;;;;;;;;;;;;;;21.84;61.35;101254.59;5003164;28;4053;-66
2023/08/12 08:16:41;;;;;;;;;;;;;;;21.89;61.19;101261.31;5002340;28;4415;-65
2023/08/12 08:19:09;;;;;;;;;;;;;;;21.90;61.39;101262.81;5002992;28;4083;-65
2023/08/12 08:21:38;;;;;;;;;;;;;;;21.89;61.69;101264.19;5002331;28;3985;-65
2023/08/12 08:24:05;;;;;;;;;;;;;;;21.90;61.70;101269.31;4999374;28;4102;-63
2023/08/12 08:26:31;;;;;;;;;;;;;;;21.90;61.92;101265.69;5002578;28;3975;-67
2023/08/12 08:28:58;;;;;;;;;;;;;;;21.91;61.94;101267.16;4998221;28;4105;-67
2023/08/12 08:31:24;;;;;;;;;;;;;;;21.92;61.64;101274.41;4999216;28;4067;-67
2023/08/12 08:33:51;;;;;;;;;;;;;;;21.91;61.82;101270.78;5002838;28;4178;-67
2023/08/12 08:36:18;;;;;;;;;;;;;;;21.90;62.08;101265.69;5002706;28;4168;-67
2023/08/12 08:38:44;;;;;;;;;;;;;;;21.92;62.06;101268.66;4997930;28;4190;-67
2023/08/12 08:41:10;;;;;;;;;;;;;;;21.92;62.06;101257.88;4999333;28;4030;-67
2023/08/12 08:43:37;;;;;;;;;;;;;;;21.92;62.21;101234.03;5001983;28;4119;-68
2023/08/12 08:46:03;;;;;;;;;;;;;;;21.92;62.05;101234.03;5006888;28;4100;-67
2023/08/12 08:48:30;;;;;;;;;;;;;;;21.93;62.55;101218.97;5002752;28;4223;-68
2023/08/12 08:50:56;;;;;;;;;;;;;;;21.95;62.98;101227.72;4997529;28;4242;-67
2023/08/12 08:53:23;;;;;;;;;;;;;;;21.95;63.10;101221.97;5015570;28;3961;-68
2023/08/12 08:55:49;;;;;;;;;;;;;;;21.94;63.48;101222.59;5001102;28;4450;-67
2023/08/12 08:58:15;;;;;;;;;;;;;;;21.94;63.76;101228.38;5002085;28;4155;-67
2023/08/12 09:00:47;;;;;;;;;;;;;;;21.96;63.65;101251.53;4995910;28;4270;-67
2023/08/12 09:03:14;;;;;;;;;;;;;;;21.95;63.40;101252.94;4995825;28;4248;-67
2023/08/12 09:05:40;;;;;;;;;;;;;;;21.95;63.39;101239.25;5001175;28;4240;-67
2023/08/12 09:08:10;;;;;;;;;;;;;;;21.95;63.97;101253.69;5004967;28;4132;-67
2023/08/12 09:10:37;;;;;;;;;;;;;;;21.97;63.58;101250.16;5014084;28;3915;-67
2023/08/12 09:13:03;;;;;;;;;;;;;;;21.95;64.11;101250.81;5012261;28;4226;-69
2023/08/12 09:15:30;;;;;;;;;;;;;;;21.99;64.22;101250.25;4997310;28;4097;-69
2023/08/12 09:17:56;;;;;;;;;;;;;;;22.01;63.83;101247.44;4999548;28;4384;-71
2023/08/12 09:20:23;;;;;;;;;;;;;;;22.38;63.06;101237.59;4995342;28;4170;-64
2023/08/12 09:22:55;;;;;;;;;;;;;;;22.63;62.65;101232.84;4997375;28;4344;-65
2023/08/12 09:25:21;;;;;;;;;;;;;;;22.68;62.56;101237.44;4998410;28;4108;-67
2023/08/12 09:27:47;;;;;;;;;;;;;;;22.73;62.26;101242.72;4997308;28;4150;-64
2023/08/12 09:30:14;;;;;;;;;;;;;;;22.63;62.42;101235.75;4999133;28;4065;-64
2023/08/12 09:32:40;;;;;;;;;;;;;;;22.30;63.41;101243.00;4991296;28;4161;-68
2023/08/12 09:35:09;;;;;;;;;;;;;;;22.26;63.30;101240.66;4991178;28;4097;-72
2023/08/12 09:37:36;;;;;;;;;;;;;;;22.25;63.41;101229.78;5007276;28;4148;-65
2023/08/12 09:40:05;;;;;;;;;;;;;;;22.20;63.55;101228.09;4993243;28;3979;-64
2023/08/12 09:42:31;;;;;;;;;;;;;;;22.23;63.42;101238.34;4990043;28;4099;-67
2023/08/12 09:44:58;;;;;;;;;;;;;;;22.22;63.32;101231.06;5012246;28;4139;-66
2023/08/12 09:47:25;;;;;;;;;;;;;;;22.19;63.67;101238.88;4995462;28;4324;-66
2023/08/12 09:49:51;;;;;;;;;;;;;;;22.16;63.26;101235.16;4996430;28;4164;-66
2023/08/12 09:52:18;;;;;;;;;;;;;;;22.15;63.23;101238.69;4996528;28;4220;-66
2023/08/12 09:54:44;;;;;;;;;;;;;;;22.14;63.37;101235.06;4995527;28;6306;-65
2023/08/12 09:57:11;;;;;;;;;;;;;;;22.12;63.51;101223.44;5000950;28;4081;-66
2023/08/12 09:59:38;;;;;;;;;;;;;;;22.12;63.42;101217.66;5006655;28;4165;-66
2023/08/12 10:02:07;;;;;;;;;;;;;;;22.10;63.66;101206.03;5005127;28;4160;-66
2023/08/12 10:04:44;;;;;;;;;;;;;;;22.10;63.44;101203.16;5000309;28;4113;-66
2023/08/12 10:07:12;;;;;;;;;;;;;;;22.10;63.40;101202.41;5000622;28;4314;-66
2023/08/12 10:09:39;;;;;;;;;;;;;;;22.09;63.43;101210.31;5000539;28;4137;-66
2023/08/12 10:12:06;;;;;;;;;;;;;;;22.09;63.32;101213.22;4998262;28;4961;-66
2023/08/12 10:14:33;;;;;;;;;;;;;;;22.09;63.23;101207.44;5008202;28;4061;-66
2023/08/12 10:16:59;;;;;;;;;;;;;;;22.09;63.20;101198.78;5001903;28;4113;-66
2023/08/12 10:19:31;;;;;;;;;;;;;;;22.09;63.05;101195.16;4997904;28;4131;-66
2023/08/12 10:21:58;;;;;;;;;;;;;;;22.08;62.96;101188.66;5000444;28;4123;-66
2023/08/12 10:24:25;;;;;;;;;;;;;;;22.07;63.15;101187.16;4994855;28;4229;-66
2023/08/12 10:26:53;;;;;;;;;;;;;;;22.08;63.30;101188.66;5003837;28;4145;-66
2023/08/12 10:29:20;;;;;;;;;;;;;;;22.08;62.94;101188.66;4998264;28;4236;-66
2023/08/12 10:31:46;;;;;;;;;;;;;;;22.09;62.90;101190.13;4993690;28;4207;-66
2023/08/12 10:34:22;;;;;;;;;;;;;;;22.08;62.76;101200.19;5004335;28;4233;-66
2023/08/12 10:36:53;;;;;;;;;;;;;;;22.08;62.97;101211.75;4999835;28;4364;-66
2023/08/12 10:39:31;;;;;;;;;;;;;;;22.09;62.73;101209.59;4998666;28;4203;-66
2023/08/12 10:41:57;;;;;;;;;;;;;;;22.08;62.79;101205.97;4999650;28;4158;-66
2023/08/12 10:44:27;;;;;;;;;;;;;;;22.09;62.59;101216.09;4998140;28;4227;-66
2023/08/12 10:46:54;;;;;;;;;;;;;;;22.08;62.69;101205.97;5005177;28;4144;-66
2023/08/12 10:49:23;;;;;;;;;;;;;;;22.09;62.75;101200.94;4997905;28;4118;-66
2023/08/12 10:51:53;;;;;;;;;;;;;;;22.09;62.89;101189.41;5013988;28;4152;-66
2023/08/12 10:54:23;;;;;;;;;;;;;;;22.07;62.78;101190.03;5010221;28;4145;-66
2023/08/12 10:57:08;;;;;;;;;;;;;;;22.08;62.79;101185.78;5011059;28;4793;-66
2023/08/12 10:59:44;;;;;;;;;;;;;;;22.08;62.61;101180.00;5006955;28;4197;-66
2023/08/12 11:02:27;;;;;;;;;;;;;;;22.08;62.49;101182.91;5006583;28;3976;-66
2023/08/12 11:04:57;;;;;;;;;;;;;;;22.07;62.72;101184.28;5003889;28;4104;-66
2023/08/12 11:07:42;;;;;;;;;;;;;;;22.09;62.67;101178.59;5010044;28;4120;-66
2023/08/12 11:10:09;;;;;;;;;;;;;;;22.08;62.33;101177.13;5000743;28;3988;-66
2023/08/12 11:12:36;;;;;;;;;;;;;;;22.09;62.68;101184.38;5001461;28;4149;-66
2023/08/12 11:15:03;;;;;;;;;;;;;;;22.09;62.27;101183.63;5005386;28;4559;-66
2023/08/12 11:17:37;;;;;;;;;;;;;;;22.09;62.65;101183.63;4998271;28;5525;-66
2023/08/12 11:20:04;;;;;;;;;;;;;;;22.08;62.36;101171.38;5001545;28;4350;-65
2023/08/12 11:22:31;;;;;;;;;;;;;;;22.07;62.18;101175.63;5006364;28;4030;-66
2023/08/12 11:24:58;;;;;;;;;;;;;;;22.08;62.41;101199.44;4999958;28;4514;-66
2023/08/12 11:27:24;;;;;;;;;;;;;;;22.08;62.34;101217.50;4998921;28;4190;-65
2023/08/12 11:29:51;;;;;;;;;;;;;;;22.09;62.40;101236.28;5001043;28;4082;-65
2023/08/12 11:32:18;;;;;;;;;;;;;;;22.08;62.53;101229.03;5008848;28;4198;-66
2023/08/12 11:34:44;;;;;;;;;;;;;;;22.07;62.46;101224.66;4998753;28;4299;-66
2023/08/12 11:37:10;;;;;;;;;;;;;;;22.08;62.13;101220.38;5003464;28;4144;-66
2023/08/12 11:39:37;;;;;;;;;;;;;;;22.08;62.43;101234.81;5007228;28;4043;-66
2023/08/12 11:42:03;;;;;;;;;;;;;;;22.08;62.14;101214.63;5003107;28;4089;-66
2023/08/12 11:44:30;;;;;;;;;;;;;;;22.08;62.30;101229.03;5007229;28;4000;-66
2023/08/12 11:46:56;;;;;;;;;;;;;;;22.08;62.45;101222.50;5007872;28;4389;-66
2023/08/12 11:49:22;;;;;;;;;;;;;;;22.08;62.21;101223.28;5003164;28;4008;-66
2023/08/12 11:51:49;;;;;;;;;;;;;;;22.07;62.24;101224.66;5005945;28;4152;-66
2023/08/12 11:54:16;;;;;;;;;;;;;;;22.08;62.45;101214.63;5004122;28;4136;-66
2023/08/12 11:56:42;;;;;;;;;;;;;;;22.08;62.24;101217.50;5001583;28;4233;-66
2023/08/12 11:59:09;;;;;;;;;;;;;;;22.07;62.48;101210.22;5004170;28;4160;-66
2023/08/12 12:01:35;;;;;;;;;;;;;;;22.08;62.40;101214.63;5004466;28;4014;-66
2023/08/12 12:04:01;;;;;;;;;;;;;;;22.07;62.16;101204.47;4999698;28;4154;-66
2023/08/12 12:06:37;;;;;;;;;;;;;;;22.08;62.14;101187.91;5004576;28;4072;-66
2023/08/12 12:09:05;;;;;;;;;;;;;;;22.08;62.35;101176.38;5002176;28;4278;-66
2023/08/12 12:11:32;;;;;;;;;;;;;;;22.07;62.17;101149.66;5003265;28;4188;-66
2023/08/12 12:14:04;;;;;;;;;;;;;;;22.07;62.44;101140.28;5007522;28;4199;-66
2023/08/12 12:16:40;;;;;;;;;;;;;;;22.07;61.98;101120.09;5003741;28;4443;-66
2023/08/12 12:19:12;;;;;;;;;;;;;;;22.07;62.17;101117.94;5003393;28;4213;-66
2023/08/12 12:21:39;;;;;;;;;;;;;;;22.07;62.02;101111.44;5011820;28;4058;-66
2023/08/12 12:24:06;;;;;;;;;;;;;;;22.07;61.90;101117.22;5005249;28;4467;-65
2023/08/12 12:26:32;;;;;;;;;;;;;;;22.08;62.13;101121.56;5005747;28;4251;-66
2023/08/12 12:28:58;;;;;;;;;;;;;;;22.07;62.20;101120.84;4997457;28;4155;-66
2023/08/12 12:31:25;;;;;;;;;;;;;;;22.08;61.97;101113.69;5001246;28;4188;-66
2023/08/12 12:33:51;;;;;;;;;;;;;;;22.08;61.95;101112.91;5001170;28;4159;-66
2023/08/12 12:36:18;;;;;;;;;;;;;;;22.09;61.98;101105.75;5005792;28;4026;-65
2023/08/12 12:38:44;;;;;;;;;;;;;;;22.08;62.13;101113.69;4999635;28;4455;-66
2023/08/12 12:41:10;;;;;;;;;;;;;;;22.08;61.97;101095.63;5007027;28;4258;-66
2023/08/12 12:43:37;;;;;;;;;;;;;;;22.08;61.81;101096.38;5003638;28;4151;-66
2023/08/12 12:46:03;;;;;;;;;;;;;;;22.09;62.21;101089.19;4999623;28;4651;-66
2023/08/12 12:48:30;;;;;;;;;;;;;;;22.09;61.85;101083.44;5000946;28;4057;-65